sensor_id;sensor_type;location;lat;lon;timestamp;P1;durP1;ratioP1;P2;durP2;ratioP2
21166;SDS011;10741;52.272;9.580;2023-02-15T00:00:21;17.40;;;12.47;;
21166;SDS011;10741;52.272;9.580;2023-02-15T00:02:47;17.77;;;11.87;;
21166;SDS011;10741;52.272;9.580;2023-02-15T00:05:13;18.90;;;11.87;;
21166;SDS011;10741;52.272;9.580;2023-02-15T00:07:39;16.10;;;11.23;;
21166;SDS011;10741;52.272;9.580;2023-02-15T00:10:05;18.87;;;11.70;;
21166;SDS011;10741;52.272;9.580;2023-02-15T00:12:31;15.60;;;11.23;;
21166;SDS011;10741;52.272;9.580;2023-02-15T00:14:57;15.13;;;10.63;;
21166;SDS011;10741;52.272;9.580;2023-02-15T00:17:23;15.87;;;11.30;;
21166;SDS011;10741;52.272;9.580;2023-02-15T00:19:52;15.97;;;11.80;;
21166;SDS011;10741;52.272;9.580;2023-02-15T00:22:17;18.23;;;12.17;;
21166;SDS011;10741;52.272;9.580;2023-02-15T00:24:43;18.83;;;12.30;;
21166;SDS011;10741;52.272;9.580;2023-02-15T00:27:09;18.10;;;12.37;;
21166;SDS011;10741;52.272;9.580;2023-02-15T00:29:35;19.40;;;12.30;;
21166;SDS011;10741;52.272;9.580;2023-02-15T00:32:00;17.23;;;12.13;;
21166;SDS011;10741;52.272;9.580;2023-02-15T00:34:26;19.00;;;11.97;;
21166;SDS011;10741;52.272;9.580;2023-02-15T00:36:53;18.47;;;12.20;;
21166;SDS011;10741;52.272;9.580;2023-02-15T00:39:19;21.33;;;12.67;;
21166;SDS011;10741;52.272;9.580;2023-02-15T00:41:45;19.37;;;11.37;;
21166;SDS011;10741;52.272;9.580;2023-02-15T00:44:12;20.30;;;12.33;;
21166;SDS011;10741;52.272;9.580;2023-02-15T00:46:38;19.33;;;12.33;;
21166;SDS011;10741;52.272;9.580;2023-02-15T00:49:04;17.37;;;11.10;;
21166;SDS011;10741;52.272;9.580;2023-02-15T00:51:30;19.33;;;11.70;;
21166;SDS011;10741;52.272;9.580;2023-02-15T00:53:56;18.47;;;12.37;;
21166;SDS011;10741;52.272;9.580;2023-02-15T00:56:22;18.10;;;10.97;;
21166;SDS011;10741;52.272;9.580;2023-02-15T00:58:48;18.33;;;11.03;;
21166;SDS011;10741;52.272;9.580;2023-02-15T01:01:16;16.53;;;11.23;;
21166;SDS011;10741;52.272;9.580;2023-02-15T01:03:43;17.57;;;11.43;;
21166;SDS011;10741;52.272;9.580;2023-02-15T01:06:11;17.80;;;11.40;;
21166;SDS011;10741;52.272;9.580;2023-02-15T01:08:37;16.83;;;11.13;;
21166;SDS011;10741;52.272;9.580;2023-02-15T01:11:07;16.53;;;10.67;;
21166;SDS011;10741;52.272;9.580;2023-02-15T01:13:35;17.10;;;10.97;;
21166;SDS011;10741;52.272;9.580;2023-02-15T01:16:02;15.63;;;10.63;;
21166;SDS011;10741;52.272;9.580;2023-02-15T01:18:28;16.27;;;10.27;;
21166;SDS011;10741;52.272;9.580;2023-02-15T01:20:54;16.53;;;10.90;;
21166;SDS011;10741;52.272;9.580;2023-02-15T01:23:20;17.67;;;11.23;;
21166;SDS011;10741;52.272;9.580;2023-02-15T01:25:46;17.27;;;11.07;;
21166;SDS011;10741;52.272;9.580;2023-02-15T01:28:12;15.83;;;10.23;;
21166;SDS011;10741;52.272;9.580;2023-02-15T01:30:38;15.67;;;10.47;;
21166;SDS011;10741;52.272;9.580;2023-02-15T01:33:04;15.03;;;10.43;;
21166;SDS011;10741;52.272;9.580;2023-02-15T01:35:30;18.60;;;10.87;;
21166;SDS011;10741;52.272;9.580;2023-02-15T01:37:56;16.57;;;11.00;;
21166;SDS011;10741;52.272;9.580;2023-02-15T01:40:23;16.63;;;10.47;;
21166;SDS011;10741;52.272;9.580;2023-02-15T01:42:52;15.40;;;9.80;;
21166;SDS011;10741;52.272;9.580;2023-02-15T01:45:29;15.20;;;10.27;;
21166;SDS011;10741;52.272;9.580;2023-02-15T01:53:17;15.27;;;10.27;;
21166;SDS011;10741;52.272;9.580;2023-02-15T01:55:50;15.93;;;10.97;;
21166;SDS011;10741;52.272;9.580;2023-02-15T01:58:25;16.53;;;9.97;;
21166;SDS011;10741;52.272;9.580;2023-02-15T02:00:52;16.47;;;10.23;;
21166;SDS011;10741;52.272;9.580;2023-02-15T02:03:24;16.17;;;10.90;;
21166;SDS011;10741;52.272;9.580;2023-02-15T02:06:01;15.60;;;10.03;;
21166;SDS011;10741;52.272;9.580;2023-02-15T02:08:27;13.73;;;9.93;;
21166;SDS011;10741;52.272;9.580;2023-02-15T02:10:53;14.80;;;10.40;;
21166;SDS011;10741;52.272;9.580;2023-02-15T02:13:19;16.67;;;10.70;;
21166;SDS011;10741;52.272;9.580;2023-02-15T02:16:28;15.67;;;10.93;;
21166;SDS011;10741;52.272;9.580;2023-02-15T02:21:47;15.90;;;10.17;;
21166;SDS011;10741;52.272;9.580;2023-02-15T02:38:44;14.50;;;9.47;;
21166;SDS011;10741;52.272;9.580;2023-02-15T02:46:44;12.47;;;8.73;;
21166;SDS011;10741;52.272;9.580;2023-02-15T02:49:14;13.27;;;8.60;;
21166;SDS011;10741;52.272;9.580;2023-02-15T02:51:40;13.53;;;8.67;;
21166;SDS011;10741;52.272;9.580;2023-02-15T02:54:06;15.87;;;8.73;;
21166;SDS011;10741;52.272;9.580;2023-02-15T02:56:40;13.53;;;8.43;;
21166;SDS011;10741;52.272;9.580;2023-02-15T02:59:20;13.40;;;8.20;;
21166;SDS011;10741;52.272;9.580;2023-02-15T03:01:57;12.87;;;8.10;;
21166;SDS011;10741;52.272;9.580;2023-02-15T03:04:35;12.67;;;8.37;;
21166;SDS011;10741;52.272;9.580;2023-02-15T03:07:05;14.07;;;8.23;;
21166;SDS011;10741;52.272;9.580;2023-02-15T03:09:39;13.17;;;7.83;;
21166;SDS011;10741;52.272;9.580;2023-02-15T03:12:13;14.17;;;8.37;;
21166;SDS011;10741;52.272;9.580;2023-02-15T03:14:51;10.90;;;7.40;;
21166;SDS011;10741;52.272;9.580;2023-02-15T03:17:22;12.70;;;7.67;;
21166;SDS011;10741;52.272;9.580;2023-02-15T03:19:51;11.63;;;7.17;;
21166;SDS011;10741;52.272;9.580;2023-02-15T03:22:23;10.80;;;6.63;;
21166;SDS011;10741;52.272;9.580;2023-02-15T03:25:05;10.90;;;6.93;;
21166;SDS011;10741;52.272;9.580;2023-02-15T03:27:33;9.77;;;6.70;;
21166;SDS011;10741;52.272;9.580;2023-02-15T03:30:06;11.53;;;6.80;;
21166;SDS011;10741;52.272;9.580;2023-02-15T03:32:34;11.10;;;6.20;;
21166;SDS011;10741;52.272;9.580;2023-02-15T03:35:01;9.80;;;6.63;;
21166;SDS011;10741;52.272;9.580;2023-02-15T03:37:29;10.83;;;6.43;;
21166;SDS011;10741;52.272;9.580;2023-02-15T03:40:15;11.77;;;6.83;;
21166;SDS011;10741;52.272;9.580;2023-02-15T03:43:15;12.47;;;7.03;;
21166;SDS011;10741;52.272;9.580;2023-02-15T03:45:43;11.27;;;7.27;;
21166;SDS011;10741;52.272;9.580;2023-02-15T03:48:56;11.60;;;7.00;;
21166;SDS011;10741;52.272;9.580;2023-02-15T03:51:26;9.33;;;6.50;;
21166;SDS011;10741;52.272;9.580;2023-02-15T03:53:58;10.67;;;7.00;;
21166;SDS011;10741;52.272;9.580;2023-02-15T03:56:36;11.80;;;7.30;;
21166;SDS011;10741;52.272;9.580;2023-02-15T03:59:04;12.60;;;7.23;;
21166;SDS011;10741;52.272;9.580;2023-02-15T04:01:58;10.87;;;7.47;;
21166;SDS011;10741;52.272;9.580;2023-02-15T04:04:49;9.80;;;7.07;;
21166;SDS011;10741;52.272;9.580;2023-02-15T04:07:14;12.50;;;7.60;;
21166;SDS011;10741;52.272;9.580;2023-02-15T04:09:40;13.60;;;7.67;;
21166;SDS011;10741;52.272;9.580;2023-02-15T04:12:26;13.03;;;7.63;;
21166;SDS011;10741;52.272;9.580;2023-02-15T04:14:52;12.10;;;7.40;;
21166;SDS011;10741;52.272;9.580;2023-02-15T04:17:36;11.50;;;6.77;;
21166;SDS011;10741;52.272;9.580;2023-02-15T04:20:03;14.80;;;7.80;;
21166;SDS011;10741;52.272;9.580;2023-02-15T04:22:47;11.50;;;7.20;;
21166;SDS011;10741;52.272;9.580;2023-02-15T04:25:31;13.13;;;7.50;;
21166;SDS011;10741;52.272;9.580;2023-02-15T04:27:57;11.60;;;7.47;;
21166;SDS011;10741;52.272;9.580;2023-02-15T04:30:23;12.70;;;7.13;;
21166;SDS011;10741;52.272;9.580;2023-02-15T04:32:50;13.03;;;7.50;;
21166;SDS011;10741;52.272;9.580;2023-02-15T04:35:16;11.20;;;6.97;;
21166;SDS011;10741;52.272;9.580;2023-02-15T04:37:43;11.03;;;6.77;;
21166;SDS011;10741;52.272;9.580;2023-02-15T04:40:12;13.37;;;7.07;;
21166;SDS011;10741;52.272;9.580;2023-02-15T04:42:39;13.27;;;7.23;;
21166;SDS011;10741;52.272;9.580;2023-02-15T04:45:05;10.13;;;6.73;;
21166;SDS011;10741;52.272;9.580;2023-02-15T04:47:31;12.77;;;6.90;;
21166;SDS011;10741;52.272;9.580;2023-02-15T04:49:57;11.00;;;7.07;;
21166;SDS011;10741;52.272;9.580;2023-02-15T04:52:23;12.00;;;6.60;;
21166;SDS011;10741;52.272;9.580;2023-02-15T04:54:48;12.13;;;6.60;;
21166;SDS011;10741;52.272;9.580;2023-02-15T04:57:14;11.80;;;6.77;;
21166;SDS011;10741;52.272;9.580;2023-02-15T04:59:40;11.03;;;6.93;;
21166;SDS011;10741;52.272;9.580;2023-02-15T05:02:06;12.90;;;6.87;;
21166;SDS011;10741;52.272;9.580;2023-02-15T05:04:32;9.10;;;6.27;;
21166;SDS011;10741;52.272;9.580;2023-02-15T05:06:57;10.27;;;6.60;;
21166;SDS011;10741;52.272;9.580;2023-02-15T05:09:23;10.97;;;6.37;;
21166;SDS011;10741;52.272;9.580;2023-02-15T05:11:49;10.67;;;6.13;;
21166;SDS011;10741;52.272;9.580;2023-02-15T05:14:15;10.60;;;6.73;;
21166;SDS011;10741;52.272;9.580;2023-02-15T05:16:40;11.80;;;7.30;;
21166;SDS011;10741;52.272;9.580;2023-02-15T05:19:06;11.87;;;7.10;;
21166;SDS011;10741;52.272;9.580;2023-02-15T05:21:32;11.10;;;6.70;;
21166;SDS011;10741;52.272;9.580;2023-02-15T05:23:58;14.37;;;7.70;;
21166;SDS011;10741;52.272;9.580;2023-02-15T05:26:24;13.57;;;6.70;;
21166;SDS011;10741;52.272;9.580;2023-02-15T05:29:09;11.43;;;6.53;;
21166;SDS011;10741;52.272;9.580;2023-02-15T05:31:35;11.80;;;6.87;;
21166;SDS011;10741;52.272;9.580;2023-02-15T05:34:01;11.83;;;7.00;;
21166;SDS011;10741;52.272;9.580;2023-02-15T05:36:27;10.83;;;7.03;;
21166;SDS011;10741;52.272;9.580;2023-02-15T05:38:54;11.20;;;6.60;;
21166;SDS011;10741;52.272;9.580;2023-02-15T05:41:19;11.60;;;6.50;;
21166;SDS011;10741;52.272;9.580;2023-02-15T05:43:45;10.17;;;6.50;;
21166;SDS011;10741;52.272;9.580;2023-02-15T05:46:11;13.27;;;7.47;;
21166;SDS011;10741;52.272;9.580;2023-02-15T05:48:38;12.80;;;7.87;;
21166;SDS011;10741;52.272;9.580;2023-02-15T05:51:05;13.93;;;7.43;;
21166;SDS011;10741;52.272;9.580;2023-02-15T05:53:37;12.30;;;7.27;;
21166;SDS011;10741;52.272;9.580;2023-02-15T05:56:04;12.80;;;7.13;;
21166;SDS011;10741;52.272;9.580;2023-02-15T05:58:32;12.90;;;8.13;;
21166;SDS011;10741;52.272;9.580;2023-02-15T06:01:09;12.27;;;7.00;;
21166;SDS011;10741;52.272;9.580;2023-02-15T06:03:39;12.63;;;7.70;;
21166;SDS011;10741;52.272;9.580;2023-02-15T06:06:06;15.63;;;7.97;;
21166;SDS011;10741;52.272;9.580;2023-02-15T06:08:32;17.20;;;8.73;;
21166;SDS011;10741;52.272;9.580;2023-02-15T06:10:59;13.97;;;9.10;;
21166;SDS011;10741;52.272;9.580;2023-02-15T06:13:25;19.57;;;9.33;;
21166;SDS011;10741;52.272;9.580;2023-02-15T06:15:51;15.90;;;9.00;;
21166;SDS011;10741;52.272;9.580;2023-02-15T06:18:16;15.27;;;9.30;;
21166;SDS011;10741;52.272;9.580;2023-02-15T06:20:44;15.23;;;9.50;;
21166;SDS011;10741;52.272;9.580;2023-02-15T06:23:10;14.57;;;9.40;;
21166;SDS011;10741;52.272;9.580;2023-02-15T06:25:36;15.30;;;8.40;;
21166;SDS011;10741;52.272;9.580;2023-02-15T06:28:02;15.50;;;8.53;;
21166;SDS011;10741;52.272;9.580;2023-02-15T06:30:28;14.90;;;8.60;;
21166;SDS011;10741;52.272;9.580;2023-02-15T06:32:53;15.77;;;8.60;;
21166;SDS011;10741;52.272;9.580;2023-02-15T06:35:19;13.87;;;8.33;;
21166;SDS011;10741;52.272;9.580;2023-02-15T06:37:45;16.77;;;9.13;;
21166;SDS011;10741;52.272;9.580;2023-02-15T06:40:11;21.13;;;10.63;;
21166;SDS011;10741;52.272;9.580;2023-02-15T06:42:37;19.53;;;10.90;;
21166;SDS011;10741;52.272;9.580;2023-02-15T06:45:03;21.60;;;11.17;;
21166;SDS011;10741;52.272;9.580;2023-02-15T06:47:29;19.23;;;11.03;;
21166;SDS011;10741;52.272;9.580;2023-02-15T06:49:55;20.03;;;10.80;;
21166;SDS011;10741;52.272;9.580;2023-02-15T06:52:22;18.93;;;10.83;;
21166;SDS011;10741;52.272;9.580;2023-02-15T06:54:48;17.70;;;9.90;;
21166;SDS011;10741;52.272;9.580;2023-02-15T06:57:14;17.67;;;10.67;;
21166;SDS011;10741;52.272;9.580;2023-02-15T06:59:40;20.03;;;11.03;;
21166;SDS011;10741;52.272;9.580;2023-02-15T07:02:05;21.70;;;10.97;;
21166;SDS011;10741;52.272;9.580;2023-02-15T07:04:31;18.53;;;10.83;;
21166;SDS011;10741;52.272;9.580;2023-02-15T07:06:57;18.30;;;10.77;;
21166;SDS011;10741;52.272;9.580;2023-02-15T07:09:23;18.83;;;11.23;;
21166;SDS011;10741;52.272;9.580;2023-02-15T07:11:48;19.13;;;12.13;;
21166;SDS011;10741;52.272;9.580;2023-02-15T07:14:33;24.23;;;13.23;;
21166;SDS011;10741;52.272;9.580;2023-02-15T07:16:59;21.37;;;11.83;;
21166;SDS011;10741;52.272;9.580;2023-02-15T07:19:24;22.00;;;12.33;;
21166;SDS011;10741;52.272;9.580;2023-02-15T07:21:50;18.43;;;11.97;;
21166;SDS011;10741;52.272;9.580;2023-02-15T07:24:16;21.87;;;13.07;;
21166;SDS011;10741;52.272;9.580;2023-02-15T07:26:42;24.50;;;13.67;;
21166;SDS011;10741;52.272;9.580;2023-02-15T07:29:07;22.57;;;13.00;;
21166;SDS011;10741;52.272;9.580;2023-02-15T07:31:33;20.53;;;12.00;;
21166;SDS011;10741;52.272;9.580;2023-02-15T07:33:59;17.97;;;11.77;;
21166;SDS011;10741;52.272;9.580;2023-02-15T07:36:24;20.93;;;11.87;;
21166;SDS011;10741;52.272;9.580;2023-02-15T07:38:50;18.53;;;11.97;;
21166;SDS011;10741;52.272;9.580;2023-02-15T07:41:16;18.60;;;11.77;;
21166;SDS011;10741;52.272;9.580;2023-02-15T07:43:43;16.20;;;10.87;;
21166;SDS011;10741;52.272;9.580;2023-02-15T07:46:11;18.17;;;12.17;;
21166;SDS011;10741;52.272;9.580;2023-02-15T07:48:40;18.37;;;12.27;;
21166;SDS011;10741;52.272;9.580;2023-02-15T07:51:07;19.90;;;11.90;;
21166;SDS011;10741;52.272;9.580;2023-02-15T07:53:35;19.27;;;11.60;;
21166;SDS011;10741;52.272;9.580;2023-02-15T07:56:02;16.97;;;11.73;;
21166;SDS011;10741;52.272;9.580;2023-02-15T07:58:30;16.27;;;10.87;;
21166;SDS011;10741;52.272;9.580;2023-02-15T08:01:14;14.33;;;10.73;;
21166;SDS011;10741;52.272;9.580;2023-02-15T08:03:40;12.93;;;10.43;;
21166;SDS011;10741;52.272;9.580;2023-02-15T08:06:06;18.53;;;12.57;;
21166;SDS011;10741;52.272;9.580;2023-02-15T08:08:35;17.00;;;10.90;;
21166;SDS011;10741;52.272;9.580;2023-02-15T08:11:13;17.43;;;11.67;;
21166;SDS011;10741;52.272;9.580;2023-02-15T08:14:03;14.30;;;11.13;;
21166;SDS011;10741;52.272;9.580;2023-02-15T08:18:55;15.27;;;12.23;;
21166;SDS011;10741;52.272;9.580;2023-02-15T08:21:21;17.10;;;11.90;;
21166;SDS011;10741;52.272;9.580;2023-02-15T08:23:47;14.27;;;11.80;;
21166;SDS011;10741;52.272;9.580;2023-02-15T08:26:13;18.37;;;13.07;;
21166;SDS011;10741;52.272;9.580;2023-02-15T08:28:40;16.63;;;13.07;;
21166;SDS011;10741;52.272;9.580;2023-02-15T08:31:07;14.53;;;11.43;;
21166;SDS011;10741;52.272;9.580;2023-02-15T08:33:34;13.87;;;11.03;;
21166;SDS011;10741;52.272;9.580;2023-02-15T08:36:04;12.70;;;11.03;;
21166;SDS011;10741;52.272;9.580;2023-02-15T08:38:35;11.70;;;10.33;;
21166;SDS011;10741;52.272;9.580;2023-02-15T08:41:11;12.70;;;10.73;;
21166;SDS011;10741;52.272;9.580;2023-02-15T08:43:42;12.90;;;10.37;;
21166;SDS011;10741;52.272;9.580;2023-02-15T08:46:09;11.53;;;10.33;;
21166;SDS011;10741;52.272;9.580;2023-02-15T08:48:35;11.33;;;10.13;;
21166;SDS011;10741;52.272;9.580;2023-02-15T08:51:12;13.67;;;10.23;;
21166;SDS011;10741;52.272;9.580;2023-02-15T08:53:40;12.30;;;10.43;;
21166;SDS011;10741;52.272;9.580;2023-02-15T08:56:07;12.43;;;10.60;;
21166;SDS011;10741;52.272;9.580;2023-02-15T08:58:34;10.37;;;9.33;;
21166;SDS011;10741;52.272;9.580;2023-02-15T09:01:00;10.93;;;9.83;;
21166;SDS011;10741;52.272;9.580;2023-02-15T09:03:27;12.57;;;11.30;;
21166;SDS011;10741;52.272;9.580;2023-02-15T09:05:57;11.67;;;10.47;;
21166;SDS011;10741;52.272;9.580;2023-02-15T09:08:24;12.17;;;10.97;;
21166;SDS011;10741;52.272;9.580;2023-02-15T09:10:50;11.60;;;10.50;;
21166;SDS011;10741;52.272;9.580;2023-02-15T09:13:16;12.00;;;10.87;;
21166;SDS011;10741;52.272;9.580;2023-02-15T09:15:42;11.37;;;10.27;;
21166;SDS011;10741;52.272;9.580;2023-02-15T09:18:08;11.97;;;10.77;;
21166;SDS011;10741;52.272;9.580;2023-02-15T09:20:36;11.47;;;10.37;;
21166;SDS011;10741;52.272;9.580;2023-02-15T09:23:02;11.77;;;10.40;;
21166;SDS011;10741;52.272;9.580;2023-02-15T09:25:28;11.00;;;9.93;;
21166;SDS011;10741;52.272;9.580;2023-02-15T09:27:54;11.60;;;10.37;;
21166;SDS011;10741;52.272;9.580;2023-02-15T09:30:20;10.73;;;9.63;;
21166;SDS011;10741;52.272;9.580;2023-02-15T09:32:46;11.67;;;10.57;;
21166;SDS011;10741;52.272;9.580;2023-02-15T09:35:13;10.40;;;9.30;;
21166;SDS011;10741;52.272;9.580;2023-02-15T09:37:39;9.60;;;8.60;;
21166;SDS011;10741;52.272;9.580;2023-02-15T09:40:04;10.67;;;9.57;;
21166;SDS011;10741;52.272;9.580;2023-02-15T09:58:46;13.57;;;12.13;;
21166;SDS011;10741;52.272;9.580;2023-02-15T10:01:32;12.47;;;10.20;;
21166;SDS011;10741;52.272;9.580;2023-02-15T10:06:32;11.80;;;10.60;;
21166;SDS011;10741;52.272;9.580;2023-02-15T10:18:03;12.90;;;10.70;;
21166;SDS011;10741;52.272;9.580;2023-02-15T10:31:28;10.93;;;9.83;;
21166;SDS011;10741;52.272;9.580;2023-02-15T10:34:23;11.67;;;10.07;;
21166;SDS011;10741;52.272;9.580;2023-02-15T10:42:24;11.70;;;9.13;;
21166;SDS011;10741;52.272;9.580;2023-02-15T10:47:44;10.10;;;8.70;;
21166;SDS011;10741;52.272;9.580;2023-02-15T10:53:41;9.70;;;8.60;;
21166;SDS011;10741;52.272;9.580;2023-02-15T10:56:50;9.60;;;8.57;;
21166;SDS011;10741;52.272;9.580;2023-02-15T10:59:37;9.60;;;8.37;;
21166;SDS011;10741;52.272;9.580;2023-02-15T11:07:47;11.70;;;9.43;;
21166;SDS011;10741;52.272;9.580;2023-02-15T11:12:55;11.67;;;9.70;;
21166;SDS011;10741;52.272;9.580;2023-02-15T11:15:29;10.83;;;9.73;;
21166;SDS011;10741;52.272;9.580;2023-02-15T11:18:05;9.60;;;8.60;;
21166;SDS011;10741;52.272;9.580;2023-02-15T11:23:18;9.73;;;8.60;;
21166;SDS011;10741;52.272;9.580;2023-02-15T11:25:45;9.47;;;8.47;;
21166;SDS011;10741;52.272;9.580;2023-02-15T11:28:31;9.73;;;8.70;;
21166;SDS011;10741;52.272;9.580;2023-02-15T11:31:17;10.60;;;9.37;;
21166;SDS011;10741;52.272;9.580;2023-02-15T11:33:53;10.13;;;9.10;;
21166;SDS011;10741;52.272;9.580;2023-02-15T11:36:29;9.97;;;8.97;;
21166;SDS011;10741;52.272;9.580;2023-02-15T11:39:01;11.40;;;9.80;;
21166;SDS011;10741;52.272;9.580;2023-02-15T11:41:31;10.23;;;9.10;;
21166;SDS011;10741;52.272;9.580;2023-02-15T11:44:05;12.00;;;10.73;;
21166;SDS011;10741;52.272;9.580;2023-02-15T11:46:38;11.40;;;9.13;;
21166;SDS011;10741;52.272;9.580;2023-02-15T11:49:17;10.43;;;9.33;;
21166;SDS011;10741;52.272;9.580;2023-02-15T11:51:49;10.87;;;9.73;;
21166;SDS011;10741;52.272;9.580;2023-02-15T11:54:17;10.87;;;9.67;;
21166;SDS011;10741;52.272;9.580;2023-02-15T11:56:46;13.27;;;10.17;;
21166;SDS011;10741;52.272;9.580;2023-02-15T11:59:14;11.70;;;10.50;;
21166;SDS011;10741;52.272;9.580;2023-02-15T12:01:49;11.57;;;10.10;;
21166;SDS011;10741;52.272;9.580;2023-02-15T12:04:24;11.93;;;9.80;;
21166;SDS011;10741;52.272;9.580;2023-02-15T12:06:59;11.30;;;9.43;;
21166;SDS011;10741;52.272;9.580;2023-02-15T12:09:45;11.67;;;10.47;;
21166;SDS011;10741;52.272;9.580;2023-02-15T12:12:23;10.77;;;9.67;;
21166;SDS011;10741;52.272;9.580;2023-02-15T12:14:50;12.53;;;11.23;;
21166;SDS011;10741;52.272;9.580;2023-02-15T12:17:18;12.80;;;10.90;;
21166;SDS011;10741;52.272;9.580;2023-02-15T12:19:47;12.47;;;11.17;;
21166;SDS011;10741;52.272;9.580;2023-02-15T12:22:24;12.43;;;10.60;;
21166;SDS011;10741;52.272;9.580;2023-02-15T12:24:56;10.90;;;9.80;;
21166;SDS011;10741;52.272;9.580;2023-02-15T12:27:32;11.67;;;10.47;;
21166;SDS011;10741;52.272;9.580;2023-02-15T12:30:00;10.93;;;9.83;;
21166;SDS011;10741;52.272;9.580;2023-02-15T12:32:35;11.17;;;10.07;;
21166;SDS011;10741;52.272;9.580;2023-02-15T12:35:15;11.40;;;10.30;;
21166;SDS011;10741;52.272;9.580;2023-02-15T12:37:55;11.50;;;10.30;;
21166;SDS011;10741;52.272;9.580;2023-02-15T12:40:28;11.70;;;10.50;;
21166;SDS011;10741;52.272;9.580;2023-02-15T12:42:54;16.43;;;14.00;;
21166;SDS011;10741;52.272;9.580;2023-02-15T12:45:31;11.23;;;9.90;;
21166;SDS011;10741;52.272;9.580;2023-02-15T12:48:18;12.00;;;10.80;;
21166;SDS011;10741;52.272;9.580;2023-02-15T12:50:48;10.60;;;9.50;;
21166;SDS011;10741;52.272;9.580;2023-02-15T12:56:04;11.93;;;10.30;;
21166;SDS011;10741;52.272;9.580;2023-02-15T12:58:35;11.40;;;10.20;;
21166;SDS011;10741;52.272;9.580;2023-02-15T13:03:34;11.03;;;9.93;;
21166;SDS011;10741;52.272;9.580;2023-02-15T13:06:02;11.10;;;9.90;;
21166;SDS011;10741;52.272;9.580;2023-02-15T13:08:34;10.40;;;9.13;;
21166;SDS011;10741;52.272;9.580;2023-02-15T13:11:33;10.80;;;9.80;;
21166;SDS011;10741;52.272;9.580;2023-02-15T13:14:00;11.70;;;9.23;;
21166;SDS011;10741;52.272;9.580;2023-02-15T13:16:32;10.97;;;9.23;;
21166;SDS011;10741;52.272;9.580;2023-02-15T13:19:12;9.97;;;8.97;;
21166;SDS011;10741;52.272;9.580;2023-02-15T13:21:49;9.33;;;8.37;;
21166;SDS011;10741;52.272;9.580;2023-02-15T13:24:21;10.77;;;9.67;;
21166;SDS011;10741;52.272;9.580;2023-02-15T13:26:54;9.90;;;8.90;;
21166;SDS011;10741;52.272;9.580;2023-02-15T13:29:32;12.60;;;10.03;;
21166;SDS011;10741;52.272;9.580;2023-02-15T13:32:45;10.77;;;9.67;;
21166;SDS011;10741;52.272;9.580;2023-02-15T13:34:50;10.90;;;9.80;;
21166;SDS011;10741;52.272;9.580;2023-02-15T13:37:34;11.57;;;10.37;;
21166;SDS011;10741;52.272;9.580;2023-02-15T13:40:22;11.60;;;10.43;;
21166;SDS011;10741;52.272;9.580;2023-02-15T13:42:56;11.10;;;10.00;;
21166;SDS011;10741;52.272;9.580;2023-02-15T13:45:33;11.10;;;10.07;;
21166;SDS011;10741;52.272;9.580;2023-02-15T13:48:07;12.87;;;10.30;;
21166;SDS011;10741;52.272;9.580;2023-02-15T13:51:03;12.27;;;9.57;;
21166;SDS011;10741;52.272;9.580;2023-02-15T14:12:45;13.47;;;10.23;;
21166;SDS011;10741;52.272;9.580;2023-02-15T14:18:15;13.43;;;11.23;;
21166;SDS011;10741;52.272;9.580;2023-02-15T14:20:53;13.37;;;11.30;;
21166;SDS011;10741;52.272;9.580;2023-02-15T14:31:26;14.43;;;9.93;;
21166;SDS011;10741;52.272;9.580;2023-02-15T14:33:56;12.80;;;10.30;;
21166;SDS011;10741;52.272;9.580;2023-02-15T14:36:23;15.73;;;11.70;;
21166;SDS011;10741;52.272;9.580;2023-02-15T14:42:05;12.70;;;10.27;;
21166;SDS011;10741;52.272;9.580;2023-02-15T14:45:21;13.50;;;10.70;;
21166;SDS011;10741;52.272;9.580;2023-02-15T14:47:53;12.93;;;10.40;;
21166;SDS011;10741;52.272;9.580;2023-02-15T14:50:37;14.47;;;10.60;;
21166;SDS011;10741;52.272;9.580;2023-02-15T15:01:31;14.90;;;9.97;;
21166;SDS011;10741;52.272;9.580;2023-02-15T15:06:34;12.83;;;10.30;;
21166;SDS011;10741;52.272;9.580;2023-02-15T15:09:12;15.43;;;10.60;;
21166;SDS011;10741;52.272;9.580;2023-02-15T15:11:45;12.23;;;9.83;;
21166;SDS011;10741;52.272;9.580;2023-02-15T15:16:56;13.07;;;9.67;;
21166;SDS011;10741;52.272;9.580;2023-02-15T15:22:21;12.80;;;10.33;;
21166;SDS011;10741;52.272;9.580;2023-02-15T15:24:49;14.47;;;10.50;;
21166;SDS011;10741;52.272;9.580;2023-02-15T15:32:52;14.57;;;10.60;;
21166;SDS011;10741;52.272;9.580;2023-02-15T15:46:23;15.97;;;10.70;;
21166;SDS011;10741;52.272;9.580;2023-02-15T15:49:17;14.83;;;11.17;;
21166;SDS011;10741;52.272;9.580;2023-02-15T15:51:46;17.40;;;11.03;;
21166;SDS011;10741;52.272;9.580;2023-02-15T15:54:17;16.10;;;11.07;;
21166;SDS011;10741;52.272;9.580;2023-02-15T15:56:49;15.93;;;10.97;;
21166;SDS011;10741;52.272;9.580;2023-02-15T15:59:21;14.50;;;10.70;;
21166;SDS011;10741;52.272;9.580;2023-02-15T16:01:49;15.63;;;11.37;;
21166;SDS011;10741;52.272;9.580;2023-02-15T16:04:23;13.57;;;10.17;;
21166;SDS011;10741;52.272;9.580;2023-02-15T16:06:54;15.07;;;10.80;;
21166;SDS011;10741;52.272;9.580;2023-02-15T16:09:25;15.40;;;10.93;;
21166;SDS011;10741;52.272;9.580;2023-02-15T16:11:56;17.63;;;11.63;;
21166;SDS011;10741;52.272;9.580;2023-02-15T16:14:38;15.67;;;10.77;;
21166;SDS011;10741;52.272;9.580;2023-02-15T16:17:06;15.50;;;10.77;;
21166;SDS011;10741;52.272;9.580;2023-02-15T16:19:38;15.60;;;11.40;;
21166;SDS011;10741;52.272;9.580;2023-02-15T16:22:11;15.87;;;10.63;;
21166;SDS011;10741;52.272;9.580;2023-02-15T16:24:50;21.03;;;11.97;;
21166;SDS011;10741;52.272;9.580;2023-02-15T16:27:38;19.00;;;11.80;;
21166;SDS011;10741;52.272;9.580;2023-02-15T16:30:19;16.90;;;11.13;;
21166;SDS011;10741;52.272;9.580;2023-02-15T16:35:37;14.63;;;10.70;;
21166;SDS011;10741;52.272;9.580;2023-02-15T16:38:05;15.53;;;10.13;;
21166;SDS011;10741;52.272;9.580;2023-02-15T16:43:15;15.77;;;10.23;;
21166;SDS011;10741;52.272;9.580;2023-02-15T16:45:45;14.53;;;10.27;;
21166;SDS011;10741;52.272;9.580;2023-02-15T16:48:19;16.67;;;12.43;;
21166;SDS011;10741;52.272;9.580;2023-02-15T16:50:48;25.47;;;15.93;;
21166;SDS011;10741;52.272;9.580;2023-02-15T16:53:18;18.13;;;14.20;;
21166;SDS011;10741;52.272;9.580;2023-02-15T16:55:47;20.23;;;13.60;;
21166;SDS011;10741;52.272;9.580;2023-02-15T16:58:20;19.47;;;13.97;;
21166;SDS011;10741;52.272;9.580;2023-02-15T17:00:54;17.47;;;13.27;;
21166;SDS011;10741;52.272;9.580;2023-02-15T17:03:23;20.07;;;13.67;;
21166;SDS011;10741;52.272;9.580;2023-02-15T17:05:51;18.07;;;12.40;;
21166;SDS011;10741;52.272;9.580;2023-02-15T17:11:11;18.97;;;13.30;;
21166;SDS011;10741;52.272;9.580;2023-02-15T17:13:38;16.10;;;11.87;;
21166;SDS011;10741;52.272;9.580;2023-02-15T17:18:31;17.83;;;11.93;;
21166;SDS011;10741;52.272;9.580;2023-02-15T17:21:08;18.87;;;13.20;;
21166;SDS011;10741;52.272;9.580;2023-02-15T17:23:44;24.03;;;15.23;;
21166;SDS011;10741;52.272;9.580;2023-02-15T17:26:25;24.63;;;16.47;;
21166;SDS011;10741;52.272;9.580;2023-02-15T17:29:11;24.20;;;16.10;;
21166;SDS011;10741;52.272;9.580;2023-02-15T17:31:48;24.20;;;16.63;;
21166;SDS011;10741;52.272;9.580;2023-02-15T17:37:25;24.73;;;17.37;;
21166;SDS011;10741;52.272;9.580;2023-02-15T17:39:54;27.50;;;16.80;;
21166;SDS011;10741;52.272;9.580;2023-02-15T17:42:21;24.40;;;15.80;;
21166;SDS011;10741;52.272;9.580;2023-02-15T17:44:47;26.40;;;17.47;;
21166;SDS011;10741;52.272;9.580;2023-02-15T17:47:17;25.80;;;17.17;;